Date,TemperatureHighF,TemperatureAvgF,TemperatureLowF,DewpointHighF,DewpointAvgF,DewpointLowF,HumidityHigh,HumidityAvg,HumidityLow,PressureMaxIn,PressureMinIn,WindSpeedMaxMPH,WindSpeedAvgMPH,GustSpeedMaxMPH,PrecipitationSumIn
2014-1-1,12.2,4.9,-7.4,7.8,-0.5,-13.6,90,78,66,30.13,29.83,0,0,0,0.00
2014-1-2,2.8,-4.6,-10.1,-1.3,-9.1,-14.7,84,80,74,30.13,29.69,0,0,0,0.00
2014-1-3,-2.4,-8.8,-17.3,-9.1,-14.7,-22.5,83,74,61,30.10,29.63,0,0,0,0.00
2014-1-4,18.7,2.0,-17.7,6.5,-7.2,-22.7,79,66,41,30.11,29.88,21,5,34,0.00
2014-1-5,34.3,21.4,13.3,34.1,14.5,6.2,99,75,59,30.02,29.66,13,1,16,0.00
2014-1-6,52.9,36.0,17.6,49.9,32.3,13.2,99,86,66,29.65,29.06,24,7,53,1.13
2014-1-7,17.6,6.2,1.2,13.9,-4.7,-12.3,87,60,41,29.75,29.20,15,5,36,0.01
2014-1-8,15.6,7.4,1.4,6.0,0.8,-2.7,86,74,55,30.10,29.75,14,6,21,0.00
2014-1-9,22.5,11.3,4.5,9.1,3.5,-0.8,86,71,43,30.31,30.08,13,3,23,0.00
2014-1-10,29.1,16.7,0.9,25.8,12.4,-4.3,89,83,71,30.26,29.98,13,2,20,0.00
2014-1-11,54.5,41.3,25.2,50.4,39.0,21.9,99,92,81,29.98,28.96,25,9,42,0.86
2014-1-12,45.1,35.9,32.2,42.0,30.8,24.0,92,82,71,29.69,29.03,11,4,24,0.01
2014-1-13,44.6,38.2,30.0,31.3,25.6,21.6,78,61,41,29.79,29.58,21,9,36,0.00
2014-1-14,43.3,40.1,34.3,40.5,36.3,31.3,99,87,63,29.59,29.47,18,6,24,0.50
2014-1-15,44.6,36.3,28.4,34.6,31.0,27.2,99,82,59,29.73,29.55,13,4,23,0.01
2014-1-16,32.7,27.4,25.7,32.1,25.6,22.3,99,93,84,29.74,29.67,13,5,19,0.00
2014-1-17,36.0,29.3,25.7,29.2,25.3,20.0,99,86,66,29.70,29.63,11,4,17,0.00
2014-1-18,45.7,28.8,18.1,27.5,21.4,17.0,97,76,45,29.67,29.45,6,1,11,0.01
2014-1-19,27.3,24.6,20.7,25.6,21.4,16.6,96,87,75,29.48,29.19,14,5,24,0.00
2014-1-20,24.8,13.4,-4.4,23.6,10.5,-9.9,96,87,73,29.67,29.19,16,6,20,0.00
2014-1-21,2.5,-5.2,-11.9,-8.7,-12.8,-17.9,81,69,54,29.81,29.67,9,3,14,0.00
2014-1-22,0.0,-6.6,-13.2,-10.5,-13.7,-19.5,77,70,58,30.14,29.55,11,5,17,0.00
2014-1-23,11.5,-3.7,-15.3,-2.6,-11.7,-20.2,80,68,49,30.21,30.00,6,2,10,0.00
2014-1-24,13.3,0.5,-10.3,-4.3,-10.2,-15.6,77,61,41,30.28,29.92,20,5,34,0.00
2014-1-25,19.9,14.8,8.6,17.1,6.5,-4.5,92,70,51,29.92,29.37,21,13,36,0.00
2014-1-26,17.1,4.9,-6.5,14.5,-6.0,-15.3,90,60,45,29.86,29.37,18,6,27,0.00
2014-1-27,28.9,16.7,2.5,26.5,7.8,-9.5,98,69,43,30.03,29.49,25,10,42,0.26
2014-1-28,16.9,5.2,-2.6,-6.7,-10.6,-17.3,62,48,31,30.27,30.03,14,5,24,0.00
2014-1-29,4.5,4.3,4.1,-8.6,-8.9,-9.2,54,53,52,30.22,30.22,8,7,17,0.00
2014-1-30,24.3,17.2,6.8,8.1,4.3,1.8,80,58,45,30.42,30.10,18,8,30,0.00
2014-1-31,32.2,25.4,18.9,18.1,10.4,1.4,70,53,41,30.25,30.03,19,7,31,0.00
2014-2-1,34.7,28.4,17.6,31.2,21.9,12.8,99,77,57,30.40,30.04,21,5,34,0.00
2014-2-2,35.2,31.5,23.5,33.4,29.9,19.7,99,94,82,30.23,29.95,19,5,32,0.00
2014-2-3,32.5,22.3,14.9,20.3,16.5,8.5,93,79,52,30.35,30.23,5,2,11,0.00
2014-2-4,29.1,17.8,5.0,15.4,9.4,1.8,90,70,50,30.53,30.43,5,1,11,0.00
2014-2-5,23.4,17.1,9.1,20.1,14.4,6.6,95,89,76,30.43,29.89,10,2,17,0.00
2014-2-6,20.7,8.8,-4.0,6.7,1.5,-8.0,89,72,51,30.34,30.09,9,2,15,0.00
2014-2-7,23.4,13.3,4.8,13.5,6.5,-0.7,87,74,54,30.23,30.17,8,4,16,0.00
2014-2-8,23.5,13.4,7.9,9.3,4.2,1.4,79,66,47,30.30,30.21,11,3,18,0.00
2014-2-9,27.5,15.4,8.1,13.4,7.0,2.9,89,70,43,30.23,30.01,9,1,11,0.00
2014-2-10,20.7,12.1,6.1,11.8,6.9,1.8,91,80,59,30.25,30.00,8,2,16,0.00
2014-2-11,14.5,6.1,-0.8,6.0,-1.3,-7.5,87,72,55,30.52,30.24,12,3,19,0.00
2014-2-12,28.4,10.3,-10.5,4.1,-5.0,-14.6,84,54,27,30.61,30.41,14,4,25,0.00
2014-2-13,29.1,21.3,12.6,28.0,13.5,-7.6,99,74,31,30.41,29.40,19,6,34,0.00
2014-2-14,28.2,22.7,19.2,28.0,21.7,17.6,99,96,91,29.78,29.10,18,6,30,0.00
2014-2-15,30.2,24.1,17.8,26.4,21.9,15.9,98,91,80,29.94,29.76,12,2,21,0.00
2014-2-16,21.0,12.5,6.3,18.4,4.7,-4.7,92,71,49,30.08,29.75,11,6,21,0.00
2014-2-17,17.8,7.1,-0.4,-4.8,-7.3,-10.2,66,52,32,30.44,30.08,12,4,18,0.00
2014-2-18,25.7,10.7,-4.2,20.2,5.4,-11.6,95,79,62,30.38,30.09,9,1,18,0.00
2014-2-19,29.8,22.5,12.4,27.9,20.9,10.8,99,93,80,30.13,29.86,13,3,27,0.00
2014-2-20,43.2,34.9,27.3,32.7,26.2,21.5,99,73,46,30.27,29.96,19,2,24,0.04
2014-2-21,37.8,32.0,27.3,35.2,29.6,23.7,99,91,83,30.24,29.81,17,4,32,0.48
2014-2-22,43.7,36.7,30.6,32.7,22.2,5.8,99,59,26,30.04,29.89,21,7,34,0.09
2014-2-23,45.1,35.0,27.3,20.3,12.2,6.4,54,40,21,30.06,29.92,13,4,24,0.00
2014-2-24,31.6,19.0,10.4,27.4,8.9,4.3,88,65,49,30.24,29.89,14,5,27,0.61
2014-2-25,32.9,24.5,4.5,29.0,19.6,-1.4,88,81,55,30.10,29.85,11,2,27,0.61
2014-2-26,17.6,7.6,-1.7,10.3,-2.8,-13.3,90,64,37,29.88,29.73,13,4,24,0.00
2014-2-27,18.9,8.8,-2.2,7.8,-2.9,-13.6,87,59,41,29.82,29.55,19,4,27,0.00
2014-2-28,15.4,5.1,-2.2,-4.1,-8.5,-13.6,76,54,31,30.37,29.82,11,3,19,0.00
2014-3-1,25.9,11.9,-6.5,10.3,-4.2,-14.1,73,50,28,30.37,30.00,21,8,53,0.00
2014-3-2,25.9,16.1,5.5,18.6,5.6,-6.3,90,63,47,30.11,30.00,14,5,20,0.00
2014-3-3,14.4,5.1,-4.0,-2.0,-10.0,-15.7,70,50,34,30.27,30.03,15,4,100,0.00
2014-3-4,18.7,6.0,-11.6,6.9,-6.3,-18.5,83,59,27,30.30,29.73,9,2,14,0.00
2014-3-5,20.3,10.6,-0.4,10.3,1.1,-13.8,86,66,48,30.21,29.92,13,3,19,0.00
2014-3-6,34.0,12.5,-7.6,-5.7,-14.7,-24.1,59,31,10,30.31,30.11,7,2,15,0.00
2014-3-7,38.8,24.7,1.4,8.5,-8.3,-21.7,51,26,10,30.12,29.62,17,8,25,0.00
2014-3-8,35.8,27.0,18.9,25.9,15.4,8.0,83,62,41,29.62,29.51,11,4,19,0.00
2014-3-9,27.9,19.2,8.8,11.5,3.2,-4.6,82,52,28,29.66,29.53,12,3,20,0.00
2014-3-10,32.5,24.2,14.4,28.9,17.0,1.5,97,74,47,29.53,29.24,18,4,25,0.00
2014-3-11,41.2,34.1,29.8,33.7,29.9,24.7,99,85,64,29.44,29.16,16,5,29,0.01
2014-3-12,32.9,25.7,15.1,30.1,23.6,13.5,99,92,76,29.44,28.96,20,7,30,0.01
2014-3-13,15.1,7.8,2.1,13.3,3.9,-6.6,93,84,53,29.57,28.95,21,10,31,0.00
2014-3-14,30.6,16.3,-1.7,18.7,4.2,-10.5,69,59,39,29.73,29.46,21,7,30,0.00
2014-3-15,43.9,35.1,25.2,34.4,27.0,18.7,97,74,56,29.56,29.32,21,8,31,0.04
2014-3-16,25.2,11.3,1.0,21.9,0.4,-10.5,92,62,41,29.88,29.56,0,0,0,0.00
2014-3-17,21.9,8.2,-7.1,-1.5,-9.0,-14.8,70,47,27,29.86,29.75,13,2,23,0.00
2014-3-18,42.8,19.0,-3.1,3.2,-4.9,-10.2,77,40,12,30.01,29.84,6,1,12,0.00
2014-3-19,35.6,26.8,14.9,29.5,9.0,-2.8,99,49,25,30.00,29.62,20,6,31,0.00
2014-3-20,36.1,26.1,20.1,35.9,10.6,-6.6,99,58,21,30.56,29.30,9,2,15,0.12
2014-3-21,32.4,26.7,20.1,26.9,19.3,-1.6,95,74,38,30.55,29.91,8,0,21,0.12
2014-3-22,32.4,24.4,13.1,31.0,19.0,8.8,98,80,58,30.26,29.88,0,0,1,0.02
2014-3-23,27.7,18.4,5.7,25.2,8.3,-5.1,91,66,38,30.36,30.11,0,0,1,0.00
2014-3-24,22.5,11.2,-2.0,4.8,-4.4,-7.6,80,52,28,30.38,30.27,0,0,1,0.00
2014-3-25,30.7,15.8,-1.8,8.5,0.9,-8.5,77,53,32,30.31,30.21,0,0,1,0.00
2014-3-26,24.6,19.0,13.6,14.3,7.0,-0.2,84,59,45,30.26,30.04,0,0,1,0.00
2014-3-27,36.9,22.4,6.1,12.9,-0.4,-5.6,58,38,21,30.50,30.26,0,0,1,0.00
2014-3-28,43.0,35.1,27.5,41.6,29.5,5.9,99,82,31,30.38,30.13,0,0,1,0.14
2014-3-29,44.8,39.3,34.5,41.5,34.1,31.4,99,82,63,30.56,30.27,0,0,0,0.05
2014-3-30,38.3,35.7,30.6,35.5,32.7,27.7,98,89,84,30.32,30.06,0,0,1,0.94
2014-3-31,33.1,29.5,26.1,27.8,24.8,22.4,94,82,72,30.40,30.13,0,0,1,0.13
2014-4-1,52.5,37.6,23.4,26.1,21.5,18.4,83,56,27,30.41,30.30,0,0,1,0.00
2014-4-2,52.7,43.5,37.6,32.8,24.7,13.5,66,48,34,30.32,30.25,0,0,1,0.00
2014-4-3,39.7,33.7,27.7,24.9,21.3,16.7,78,61,46,30.44,30.32,0,0,1,0.00
2014-4-4,50.9,35.7,21.7,31.4,22.0,14.5,94,60,34,30.43,30.10,0,0,1,0.27
2014-4-5,38.8,34.0,30.2,36.8,31.0,22.5,99,89,69,30.17,29.95,0,0,1,0.07
2014-4-6,49.1,37.0,27.1,25.7,20.9,17.3,89,55,31,30.44,30.17,0,0,1,0.00
2014-4-7,57.0,45.2,29.3,35.0,25.0,18.5,85,47,32,30.48,30.19,0,0,1,0.04
2014-4-8,52.0,40.2,30.9,47.0,36.3,20.2,95,86,64,30.71,29.57,0,0,1,0.33
2014-4-9,41.7,36.0,28.6,35.8,30.8,10.3,99,84,32,30.45,30.06,0,0,1,0.00
2014-4-10,57.7,37.7,22.3,28.6,17.5,10.6,72,46,27,30.58,30.37,0,0,1,0.00
2014-4-11,60.4,50.8,39.7,39.3,30.4,25.4,78,47,27,30.58,30.37,0,0,1,0.00
2014-4-12,59.0,46.1,32.5,33.6,27.5,23.7,75,50,29,30.77,30.56,0,0,1,0.00
2014-4-13,59.0,43.8,37.2,45.5,35.8,27.3,97,75,30,30.77,29.76,1,0,6,0.27
2014-4-14,78.6,59.3,37.4,54.3,48.2,36.9,99,70,43,29.83,29.51,0,0,0,0.00
2014-4-15,63.7,53.1,-24.5,59.5,32.2,-32.6,99,53,10,29.95,29.26,0,0,0,9.27
2014-4-16,58.3,31.8,-29.6,32.1,16.1,-33.6,80,54,36,30.56,29.93,0,0,0,0.69
2014-4-17,51.4,32.4,14.2,21.8,16.2,10.5,89,56,27,30.71,30.56,0,0,0,0.06
2014-4-18,55.8,39.7,24.6,26.2,18.0,9.1,68,45,16,30.57,30.15,0,0,0,0.00
2014-4-19,49.6,41.8,33.3,35.6,25.7,19.3,92,55,33,30.37,29.66,0,0,0,0.00
2014-4-20,65.7,43.4,26.6,26.4,21.8,1.3,64,46,10,29.94,29.60,0,0,0,0.00
2014-4-21,79.2,57.2,42.6,33.6,26.2,15.4,47,32,15,29.68,29.26,0,0,0,0.00
2014-4-22,73.8,55.2,46.9,51.2,40.6,28.2,98,62,22,29.26,28.92,0,0,0,0.00
2014-4-23,50.0,41.8,36.0,48.6,38.4,31.6,99,88,74,29.16,28.92,0,0,0,0.00
2014-4-24,46.4,38.7,32.0,31.7,26.9,23.5,86,63,50,29.42,29.15,0,0,0,0.00
2014-4-25,65.7,47.3,29.3,29.3,20.9,8.4,82,42,11,29.47,29.25,0,0,0,0.00
2014-4-26,50.4,42.9,38.1,40.5,33.5,16.8,97,75,27,29.29,29.18,0,0,0,0.00
2014-4-27,50.4,40.4,36.3,40.8,36.0,16.7,99,87,26,30.03,29.28,0,0,0,0.00
2014-4-28,58.1,43.8,35.4,39.7,36.2,16.7,94,76,27,30.07,29.61,13,1,21,0.28
2014-4-29,57.6,46.8,37.0,36.6,31.4,26.5,82,58,33,30.26,30.03,17,4,28,0.00
2014-4-30,46.2,40.4,36.5,39.3,36.0,31.7,99,85,65,30.29,29.93,12,3,17,0.32
2014-5-1,66.6,48.4,37.4,54.4,45.5,37.1,99,91,61,29.93,29.47,8,2,24,0.56
2014-5-2,57.0,49.1,44.4,44.7,38.9,33.9,85,68,51,29.62,29.49,8,1,15,0.04
2014-5-3,60.8,50.8,44.6,44.6,39.8,32.8,91,67,49,29.66,29.52,13,2,17,0.02
2014-5-4,48.9,44.4,41.2,44.3,42.0,39.4,99,91,72,29.52,29.33,7,1,17,0.50
2014-5-5,47.5,43.7,42.1,43.8,41.4,39.0,99,92,79,29.70,29.48,8,2,16,0.02
2014-5-6,53.6,45.3,37.8,39.6,34.9,28.2,97,69,41,29.88,29.67,13,3,22,0.00
2014-5-7,60.6,48.8,34.5,36.3,32.5,29.0,87,57,30,30.02,29.87,13,2,18,0.00
2014-5-8,65.8,53.3,35.1,37.9,25.5,16.1,78,39,18,30.03,29.93,11,2,19,0.00
2014-5-9,54.1,51.9,48.6,50.3,33.2,19.3,91,53,26,30.02,29.83,17,6,26,0.01
2014-5-10,77.2,63.8,52.9,62.5,51.4,30.3,99,70,30,29.84,29.54,17,7,36,0.26
2014-5-11,70.2,60.3,51.6,42.2,37.2,29.9,63,44,23,29.84,29.64,14,3,29,0.00
2014-5-12,74.1,60.8,54.9,54.6,43.8,34.3,95,60,25,29.98,29.72,17,7,28,0.26
2014-5-13,60.3,54.5,49.3,47.4,42.6,33.4,75,65,42,30.09,29.98,11,4,17,0.00
2014-5-14,75.0,60.6,50.4,54.6,47.4,37.5,95,65,40,30.08,29.59,14,8,24,0.26
2014-5-15,75.2,66.1,57.7,62.6,58.0,47.5,89,76,57,29.94,29.83,20,10,36,0.00
2014-5-16,74.3,67.4,61.5,61.4,58.6,52.4,93,74,53,29.84,29.62,25,10,42,0.06
2014-5-17,66.9,59.6,49.3,61.6,51.3,40.0,99,76,40,29.81,29.51,14,4,27,1.28
2014-5-18,63.1,52.9,43.3,40.3,34.4,27.6,80,52,28,29.88,29.80,11,3,21,0.00
2014-5-19,56.5,50.1,42.1,46.9,38.5,30.4,85,65,52,29.83,29.75,13,3,24,0.04
2014-5-20,68.4,56.8,43.9,45.2,40.4,32.8,86,57,30,29.81,29.71,19,5,30,0.01
2014-5-21,77.2,62.3,45.9,51.0,43.7,33.7,94,56,21,29.73,29.62,10,2,16,0.00
2014-5-22,69.1,57.9,51.4,54.7,51.2,47.4,99,79,55,29.64,29.54,16,2,27,0.08
2014-5-23,60.8,54.7,51.3,54.8,52.6,51.0,99,93,76,29.71,29.58,11,2,19,0.09
2014-5-24,68.2,56.8,50.2,57.2,51.7,48.4,99,84,58,29.78,29.70,7,1,14,0.30
2014-5-25,77.9,61.7,45.0,57.2,48.0,41.3,99,67,29,29.80,29.68,8,1,15,0.01
2014-5-26,71.2,61.3,56.1,61.0,56.1,50.6,97,83,69,29.69,29.53,7,1,14,0.22
2014-5-27,61.7,56.4,48.9,59.3,55.4,48.7,99,96,89,29.65,29.50,17,3,28,0.70
2014-5-28,60.4,49.7,43.9,48.5,45.5,41.8,99,86,62,29.93,29.62,11,2,26,0.09
2014-5-29,71.6,61.3,36.5,50.2,39.5,34.4,99,51,28,29.96,29.81,8,2,17,0.00
2014-5-30,68.7,56.8,46.0,55.3,47.6,39.3,99,73,51,29.83,29.73,12,1,22,0.09
2014-5-31,69.3,55.8,46.0,52.5,48.3,44.1,99,78,43,30.02,29.82,8,2,17,0.00
2014-6-1,78.1,61.8,43.5,52.0,47.6,42.7,99,64,33,30.07,29.89,8,1,13,0.00
2014-6-2,84.4,71.3,53.1,56.8,50.0,43.8,76,48,32,29.90,29.70,12,3,17,0.00
2014-6-3,83.5,71.8,58.3,63.8,54.1,44.4,86,56,29,29.72,29.55,17,5,28,0.02
2014-6-4,78.6,65.4,57.6,59.2,54.0,49.2,93,69,40,29.59,29.44,8,3,18,0.00
2014-6-5,73.9,61.5,52.2,57.8,53.5,48.9,99,77,47,29.49,29.41,8,1,12,0.35
2014-6-6,69.4,59.3,53.6,57.6,54.6,53.2,99,85,62,29.63,29.47,10,2,16,0.01
2014-6-7,78.8,67.4,54.3,59.8,55.0,52.7,98,67,42,29.71,29.63,10,2,20,0.00
2014-6-8,88.5,71.1,54.0,62.0,54.3,47.2,94,60,24,29.72,29.59,4,1,11,0.00
2014-6-9,84.6,72.6,59.4,63.8,56.5,53.4,88,59,35,29.70,29.63,8,2,15,0.00
2014-6-10,73.6,65.9,56.5,61.6,57.8,50.4,92,76,57,29.85,29.66,8,2,14,0.00
2014-6-11,76.6,60.5,48.4,56.3,51.6,46.1,95,75,41,29.90,29.85,13,3,21,0.20
2014-6-12,59.2,54.9,52.0,58.1,52.2,46.4,99,91,74,29.88,29.75,9,4,21,0.76
2014-6-13,59.0,57.7,57.0,57.9,57.5,56.8,99,99,98,29.75,29.54,8,1,14,0.18
2014-6-14,61.2,60.0,57.7,57.5,55.1,54.1,99,84,78,30.23,29.52,10,6,15,0.18
2014-6-15,61.0,61.0,61.0,54.1,54.1,54.1,78,78,78,30.20,30.04,9,9,15,0.18
2014-6-16,61.0,61.0,61.0,54.1,54.1,54.1,78,78,78,30.26,30.12,9,9,15,0.18
2014-6-17,61.0,61.0,61.0,54.1,54.1,54.1,78,78,78,30.16,29.85,9,9,15,0.18
2014-6-18,61.0,61.0,61.0,54.1,54.1,54.1,78,78,78,30.06,29.75,9,9,15,0.18
2014-6-19,61.0,61.0,61.0,54.1,54.1,54.1,78,78,78,30.11,30.04,9,9,15,0.18
2014-6-20,61.0,61.0,61.0,54.1,54.1,54.1,78,78,78,30.09,30.05,9,9,15,0.18
2014-6-21,66.7,59.8,48.4,54.1,52.4,44.1,85,77,46,30.08,29.91,9,8,15,0.18
2014-6-22,81.7,62.4,44.6,53.2,47.7,42.9,99,63,30,30.03,29.92,5,1,14,0.00
2014-6-23,79.5,67.7,49.8,58.0,52.7,47.0,97,62,37,30.11,30.02,11,3,19,0.00
2014-6-24,71.4,68.5,64.8,63.0,59.9,54.3,82,74,61,30.08,29.90,16,8,26,0.00
2014-6-25,69.6,67.3,65.3,69.0,65.4,60.8,99,94,74,29.91,29.85,12,2,20,0.85
2014-6-26,73.0,66.1,57.9,66.0,61.5,54.8,99,86,56,30.02,29.81,12,3,19,0.06
2014-6-27,83.5,69.4,52.7,64.9,52.8,45.3,99,62,29,30.18,30.02,9,2,17,0.00
2014-6-28,87.1,72.3,54.0,62.2,53.1,47.6,88,54,28,30.28,30.18,6,1,11,0.00
2014-6-29,89.1,75.5,57.7,63.7,56.2,49.3,80,53,28,30.24,30.02,8,2,13,0.00
2014-6-30,87.1,75.7,63.3,70.6,65.9,59.8,91,72,55,30.04,29.87,8,2,16,0.00
2014-7-1,87.3,78.2,65.5,72.6,70.0,65.2,99,77,58,29.89,29.70,17,5,24,0.00
2014-7-2,93.9,77.7,70.2,73.8,69.2,62.1,93,77,38,29.90,29.74,14,5,24,0.02
2014-7-3,90.3,75.4,64.6,71.8,67.1,64.3,99,79,46,29.97,29.84,10,2,20,0.69
2014-7-4,72.3,64.6,60.3,65.4,63.5,53.7,99,96,72,30.00,29.89,8,2,16,0.11
2014-7-5,77.0,64.8,55.0,55.5,49.5,43.7,76,59,42,29.99,29.86,11,5,29,0.00
2014-7-6,82.8,71.2,61.3,59.6,53.4,49.7,68,54,38,29.94,29.81,8,1,17,0.00
2014-7-7,76.5,67.9,57.4,69.2,59.5,50.2,95,75,56,30.19,29.66,14,4,21,0.06
2014-7-8,85.3,76.3,66.9,70.0,67.8,64.9,99,76,56,30.00,29.81,26,6,39,0.18
2014-7-9,80.6,70.0,62.6,67.0,61.7,56.6,99,77,49,30.16,29.85,14,4,25,0.27
2014-7-10,75.4,65.5,55.9,62.7,52.7,44.9,99,67,37,30.43,29.60,5,1,14,0.01
2014-7-11,81.9,66.0,49.1,60.3,51.8,47.8,99,65,34,30.50,30.42,6,1,9,0.00
2014-7-12,84.6,69.5,52.0,65.8,58.3,49.9,99,70,42,30.46,30.31,8,2,14,0.17
2014-7-13,77.9,72.5,69.6,70.8,66.9,63.0,99,83,73,30.31,30.04,16,8,28,0.21
2014-7-14,86.7,72.1,62.8,69.9,64.6,60.5,99,79,48,30.14,30.05,11,2,17,0.05
2014-7-15,79.5,71.6,62.1,71.7,67.5,61.8,99,88,73,30.11,29.97,11,3,21,0.01
2014-7-16,81.7,68.6,60.8,68.7,62.3,56.0,99,82,48,30.12,29.99,9,2,16,0.63
2014-7-17,75.2,64.8,55.2,59.3,54.5,51.2,95,72,46,30.32,30.12,6,1,19,0.00
2014-7-18,77.9,65.1,50.7,60.5,53.7,49.6,99,70,40,30.49,30.32,7,1,11,0.00
2014-7-19,81.7,67.3,52.3,63.6,57.0,51.9,99,72,41,30.54,30.46,6,1,14,0.00
2014-7-20,81.1,69.3,58.5,64.9,56.8,49.2,97,68,35,30.46,30.38,11,2,21,0.00
2014-7-21,87.1,60.3,53.4,64.3,55.0,51.8,99,84,42,30.46,29.88,5,0,10,0.00
2014-7-22,89.4,75.7,61.2,69.9,64.4,59.9,98,70,42,29.92,29.71,8,1,14,0.00
2014-7-23,85.8,73.2,65.5,73.2,68.5,65.2,99,86,63,29.71,29.50,14,4,23,0.65
2014-7-24,71.2,63.3,53.2,65.0,55.7,50.4,99,78,52,29.71,29.58,9,2,18,0.01
2014-7-25,79.0,64.8,48.6,60.7,55.1,48.3,99,74,47,29.76,29.68,4,1,15,0.00
2014-7-26,80.2,67.7,53.8,61.5,56.5,52.3,98,70,40,29.73,29.61,12,2,20,0.00
2014-7-27,77.4,65.9,59.2,66.4,61.3,54.8,99,86,66,29.64,29.42,14,3,31,0.44
2014-7-28,68.4,62.6,58.5,65.7,62.0,58.2,99,98,89,30.19,29.28,10,2,16,0.67
2014-7-29,71.1,60.8,53.4,58.6,53.7,50.3,99,79,52,30.37,29.99,11,2,15,0.00
2014-7-30,78.4,62.2,48.2,58.2,52.4,47.6,99,74,36,30.44,30.37,7,1,12,0.00
2014-7-31,72.3,61.3,52.2,62.0,56.7,51.9,99,86,67,30.53,30.43,14,2,23,0.07
2014-8-1,79.9,68.3,54.7,65.1,60.7,54.4,99,79,55,30.61,30.53,11,3,17,0.01
2014-8-2,81.5,70.4,61.7,68.3,63.0,56.9,99,78,56,30.61,29.86,9,3,17,0.08
2014-8-3,84.4,70.1,57.9,66.9,61.9,57.7,99,77,46,29.95,29.83,5,0,9,0.00
2014-8-4,84.9,69.8,61.9,66.2,62.3,56.7,99,79,43,29.87,29.81,5,1,15,0.08
2014-8-5,81.5,68.4,57.0,67.1,62.6,56.8,99,83,57,29.86,29.73,8,1,14,0.01
2014-8-6,73.6,65.7,57.2,63.4,58.1,50.6,99,79,48,29.74,29.66,12,2,18,0.04
2014-8-7,70.3,60.1,54.3,60.4,55.9,50.7,99,86,58,29.79,29.68,8,1,20,0.22
2014-8-8,76.8,64.8,50.9,63.4,57.2,50.6,99,78,52,29.88,29.78,11,2,18,0.01
2014-8-9,80.2,68.8,54.9,65.0,57.2,51.0,99,70,37,29.95,29.85,10,2,19,0.00
2014-8-10,84.0,69.6,54.5,64.0,58.2,53.4,99,71,36,29.98,29.91,6,1,14,0.00
2014-8-11,62.8,62.1,61.3,58.9,58.6,58.4,91,88,86,29.96,29.95,3,1,4,0.00
2014-8-12,75.0,70.0,65.8,61.9,60.3,58.4,77,71,60,29.84,29.80,9,3,17,0.00
2014-8-13,80.4,69.2,57.4,66.6,61.8,56.7,99,78,61,30.36,29.58,12,2,26,1.17
2014-8-14,70.0,59.4,52.0,57.1,53.4,49.0,99,82,49,30.05,29.87,4,1,10,0.04
2014-8-15,64.9,57.2,48.6,55.2,51.1,45.9,99,81,63,30.08,30.03,8,1,14,0.00
2014-8-16,67.8,60.1,53.6,57.2,54.3,51.9,98,82,62,30.12,30.05,12,2,19,0.07
2014-8-17,69.1,59.8,56.8,59.8,56.3,52.9,99,88,67,30.06,29.99,12,3,23,0.32
2014-8-18,63.7,57.7,50.4,57.5,53.4,50.1,99,87,64,30.11,30.00,8,2,15,0.24
2014-8-19,81.9,61.1,43.9,58.0,52.8,43.6,99,78,41,30.17,30.08,5,1,10,0.00
2014-8-20,86.0,66.5,49.5,63.7,57.4,49.2,99,76,43,30.26,30.17,3,1,11,0.00
2014-8-21,73.4,63.2,57.9,64.4,59.5,54.7,99,88,69,30.30,30.25,8,1,19,0.12
2014-8-22,70.0,61.3,56.8,64.4,60.0,55.5,99,96,77,30.34,30.27,3,0,15,0.02
2014-8-23,79.2,65.8,54.5,64.8,58.3,53.6,99,79,44,30.36,30.31,5,1,9,0.00
2014-8-24,82.8,65.7,54.7,65.1,59.1,54.4,99,81,45,30.38,30.32,8,1,14,0.00
2014-8-25,90.7,71.4,57.0,68.7,61.1,56.8,99,74,36,30.40,30.31,4,0,8,0.00
2014-8-26,84.9,71.3,56.7,68.1,60.4,54.5,99,72,36,30.36,30.18,14,3,21,0.00
2014-8-27,82.6,72.0,62.6,66.9,61.2,57.5,93,70,48,30.18,30.08,10,2,17,0.00
2014-8-28,67.8,60.8,55.6,58.7,53.8,48.7,99,79,56,30.22,30.05,13,3,24,0.00
2014-8-29,81.1,63.5,53.1,57.0,54.0,51.2,95,74,37,30.40,30.22,5,1,11,0.00
2014-8-30,75.4,66.0,54.1,60.6,57.6,51.9,95,75,56,30.42,30.25,17,7,27,0.00
2014-8-31,73.9,69.0,64.2,69.5,65.9,60.2,99,90,81,30.25,30.12,11,5,23,0.12
2014-9-1,87.8,73.6,64.4,72.8,66.2,61.9,99,80,45,30.19,30.11,5,1,11,0.01
2014-9-2,84.2,73.7,61.5,72.2,64.5,58.6,99,74,57,30.28,29.92,16,6,22,0.44
2014-9-3,78.1,66.9,59.4,65.0,59.3,52.7,99,79,45,30.26,29.92,9,1,14,0.06
2014-9-4,81.5,66.8,51.4,63.2,58.2,51.2,99,76,52,30.37,30.25,9,1,16,0.00
2014-9-5,84.9,73.3,59.0,71.1,65.7,58.7,99,79,55,30.32,30.10,14,4,21,0.00
2014-9-6,77.7,68.6,58.3,70.7,65.1,58.0,99,89,70,30.13,29.96,13,4,26,0.14
2014-9-7,72.3,59.7,48.2,58.6,51.7,47.9,99,77,49,30.42,30.12,9,1,13,0.01
2014-9-8,78.4,61.7,45.7,57.9,52.1,45.4,99,74,43,30.57,30.41,11,1,17,0.00
2014-9-9,72.1,60.7,51.4,54.1,48.5,39.0,96,67,36,30.57,30.38,13,2,21,0.00
2014-9-10,76.8,60.7,46.2,59.1,53.0,44.1,99,77,53,30.39,30.17,13,2,20,0.00
2014-9-11,70.7,61.8,54.0,66.8,58.7,49.2,99,90,77,30.17,29.89,22,8,32,0.17
2014-9-12,54.1,47.8,39.7,48.9,42.1,37.7,95,81,72,30.46,30.15,12,3,19,0.00
2014-9-13,51.6,45.4,36.7,50.8,43.9,35.9,99,95,79,30.47,30.24,13,2,24,0.21
2014-9-14,48.9,44.0,36.7,48.1,40.4,35.5,98,87,74,30.44,30.30,10,2,16,0.00
2014-9-15,63.0,46.2,29.5,46.6,39.6,28.9,99,80,50,30.42,30.24,5,0,11,0.01
2014-9-16,64.6,52.1,47.1,56.9,48.9,44.3,99,89,71,30.24,30.11,10,2,14,0.07
2014-9-17,70.2,52.7,36.3,52.2,45.3,35.9,99,79,43,30.19,30.10,8,1,11,0.01
2014-9-18,53.8,47.7,36.9,50.3,42.9,33.1,99,84,62,30.36,30.09,10,2,16,0.00
2014-9-19,60.6,44.7,28.9,36.5,30.0,21.5,96,61,28,30.54,30.36,16,2,27,0.00
2014-9-20,61.9,52.6,43.7,57.3,47.2,33.0,88,82,59,30.47,30.17,21,9,30,0.04
2014-9-21,77.2,67.9,59.5,65.3,60.4,53.0,90,77,60,30.17,29.73,21,10,32,0.02
2014-9-22,69.3,51.8,44.4,65.4,47.3,37.0,99,85,67,30.25,29.70,17,2,26,0.34
2014-9-23,62.8,51.1,43.2,50.3,44.5,37.0,99,79,61,30.60,30.24,8,1,16,0.00
2014-9-24,69.1,55.1,41.9,57.1,48.2,41.6,99,80,48,30.78,30.60,11,2,15,0.00
2014-9-25,74.3,53.9,43.0,57.9,47.9,37.2,99,82,51,30.71,29.32,7,1,14,0.00
2014-9-26,78.4,60.6,43.9,60.1,53.2,43.6,99,80,45,29.71,29.61,8,1,16,0.01
2014-9-27,81.5,65.9,51.4,62.9,58.3,51.2,99,79,49,29.67,29.61,10,1,14,0.00
2014-9-28,84.9,66.4,52.3,65.6,59.3,51.9,99,81,46,29.64,29.44,6,1,9,0.00
2014-9-29,75.9,65.3,55.6,62.3,58.2,54.5,99,79,59,29.46,29.39,9,1,13,0.00
2014-9-30,71.8,60.1,53.6,59.1,55.8,53.3,99,87,64,29.49,29.42,9,1,13,3.92
2014-10-1,67.6,58.1,53.2,55.7,53.4,50.5,99,85,64,29.59,29.49,10,2,15,0.00
2014-10-2,79.5,60.2,48.6,57.3,51.7,46.7,99,76,43,29.63,29.52,10,2,17,0.00
2014-10-3,74.5,59.6,51.4,52.9,47.5,42.9,89,66,42,29.58,29.28,13,3,21,0.00
2014-10-4,62.6,55.9,50.5,57.1,53.2,30.0,99,91,74,29.29,28.97,16,3,27,1.52
2014-10-5,60.6,49.2,40.1,50.1,41.1,32.9,99,77,37,29.34,29.03,10,2,14,0.05
2014-10-6,62.8,46.5,32.0,41.7,36.7,31.6,99,73,40,29.47,29.34,21,5,28,0.00
2014-10-7,66.6,60.4,54.9,57.9,53.7,47.4,99,79,61,29.45,29.35,21,8,33,0.24
2014-10-8,65.1,56.4,49.6,55.6,49.2,35.4,99,78,47,29.35,29.04,22,7,40,0.52
2014-10-9,51.3,46.3,40.1,40.6,36.5,32.4,94,69,51,29.35,29.21,16,3,21,0.02
2014-10-10,53.1,45.5,37.8,39.6,36.8,32.5,87,72,54,29.54,29.35,9,1,14,0.01
2014-10-11,55.8,43.8,37.6,43.2,38.2,36.1,96,82,52,29.55,29.47,5,0,8,0.00
2014-10-12,59.4,44.7,34.0,42.5,35.1,30.7,99,73,36,29.69,29.54,10,1,14,0.00
2014-10-13,55.8,46.4,30.9,49.1,40.0,30.3,99,79,56,29.72,29.61,16,4,21,0.00
2014-10-14,74.1,64.3,54.1,61.6,57.6,49.1,91,80,64,29.62,29.49,20,10,31,0.00
2014-10-15,77.7,69.6,65.1,63.9,61.9,59.3,86,77,60,29.52,29.39,19,9,30,0.00
2014-10-16,73.8,67.5,61.7,67.1,64.2,61.4,99,89,76,29.39,29.08,21,7,32,0.89
2014-10-17,64.6,59.4,55.8,61.3,53.5,48.9,99,82,60,29.10,29.00,17,6,24,0.32
2014-10-18,60.4,54.3,43.3,56.1,50.9,42.5,99,89,73,29.07,28.93,14,3,21,0.44
2014-10-19,43.3,38.0,35.4,42.5,32.7,27.0,99,82,65,29.33,29.07,12,4,20,0.04
2014-10-20,50.9,41.0,33.1,33.2,29.3,23.1,77,63,47,29.39,29.32,11,2,17,0.00
2014-10-21,47.1,43.3,38.3,46.5,41.4,32.4,99,93,72,29.51,29.36,11,1,15,0.18
2014-10-22,55.9,48.3,45.3,45.3,43.3,39.8,96,83,61,29.60,29.46,20,6,28,0.24
2014-10-23,48.0,45.8,43.7,47.6,44.1,41.2,99,94,86,29.46,29.22,11,3,17,0.58
2014-10-24,48.0,44.6,39.6,47.3,44.0,36.5,99,98,87,30.03,29.18,11,2,16,0.18
2014-10-25,62.4,47.9,33.8,47.8,40.2,32.8,99,77,50,29.95,29.62,8,1,12,0.30
2014-10-26,48.2,44.4,41.4,47.4,41.8,37.8,99,91,79,29.83,29.58,10,1,16,0.22
2014-10-27,45.3,41.9,39.9,39.9,38.5,36.7,94,88,79,30.17,29.83,11,2,18,0.00
2014-10-28,52.5,44.9,39.4,49.2,42.2,36.8,99,91,74,30.21,30.04,10,1,15,0.09
2014-10-29,55.2,49.9,42.4,53.5,45.3,35.3,98,85,64,30.05,29.95,11,1,18,0.00
2014-10-30,46.4,42.4,38.7,40.3,35.6,31.6,89,77,65,30.15,30.00,10,1,13,0.00
2014-10-31,51.8,41.9,34.0,34.6,30.9,27.8,87,66,43,30.20,30.14,7,1,11,0.00
2014-11-1,39.7,35.6,32.0,36.3,31.4,26.5,99,85,66,30.18,30.09,14,3,20,0.06
2014-11-2,34.9,32.5,28.9,30.1,22.3,12.6,86,67,45,30.12,29.90,24,10,35,0.25
2014-11-3,45.5,34.7,24.8,30.4,16.5,3.6,73,49,18,30.14,29.94,16,4,27,0.00
2014-11-4,54.3,43.3,32.4,35.5,32.4,26.9,85,67,46,30.21,30.01,21,4,27,0.00
2014-11-5,57.0,50.9,45.3,45.0,34.5,28.6,83,54,37,30.19,29.99,18,4,27,0.02
2014-11-6,48.6,42.5,36.7,43.0,35.5,32.0,98,77,59,30.19,29.69,12,1,15,0.25
2014-11-7,36.7,32.4,28.2,35.9,31.7,24.0,99,97,84,29.83,29.59,15,5,22,0.13
2014-11-8,38.1,31.6,26.2,25.1,22.4,19.7,85,69,56,29.97,29.82,17,4,29,0.00
2014-11-9,43.2,37.5,29.1,32.6,27.9,24.6,90,68,59,30.02,29.84,17,4,26,0.00
2014-11-10,50.0,39.8,27.5,36.4,31.8,25.5,96,74,57,30.22,30.00,11,2,15,0.00
2014-11-11,58.3,49.1,35.1,47.8,40.0,31.1,86,71,55,30.18,29.99,25,9,34,0.00
2014-11-12,53.8,46.7,34.0,52.0,42.6,26.4,96,86,72,30.09,29.87,21,6,30,0.12
2014-11-13,38.1,33.5,30.0,29.1,23.4,20.9,93,67,52,30.11,29.98,5,0,10,0.00
2014-11-14,34.3,27.9,21.9,29.1,23.0,16.8,95,82,61,30.10,29.94,10,1,17,0.00
2014-11-15,33.3,25.0,18.7,20.3,15.9,11.9,95,70,44,30.29,30.09,13,1,19,0.00
2014-11-16,33.4,29.4,19.6,24.9,19.8,12.5,89,67,56,30.30,30.09,16,6,28,0.00
2014-11-17,37.2,32.5,28.8,36.8,30.4,22.1,99,93,66,30.09,29.46,13,3,21,0.26
2014-11-18,34.9,25.3,18.5,34.6,16.8,5.2,99,71,51,29.76,29.47,15,1,24,0.00
2014-11-19,30.0,21.5,16.0,19.6,11.9,5.0,93,68,46,30.05,29.75,18,4,28,0.00
2014-11-20,31.6,24.5,19.9,21.6,14.7,8.0,83,66,54,29.95,29.75,21,8,31,0.01
2014-11-21,24.4,18.5,15.3,16.1,9.8,2.8,92,69,49,30.34,29.85,15,3,23,0.00
2014-11-22,37.6,26.6,16.5,30.7,14.5,7.0,76,61,38,30.33,29.98,19,8,28,0.00
2014-11-23,45.5,41.0,37.4,41.7,38.3,30.5,99,90,76,30.15,29.98,10,3,14,0.02
2014-11-24,61.0,53.2,37.2,57.2,50.1,34.9,99,89,70,30.07,29.52,24,11,38,0.57
2014-11-25,57.2,47.1,38.5,50.5,33.5,24.3,82,59,47,30.14,29.64,20,5,29,0.02
2014-11-26,38.3,30.8,26.6,28.9,25.1,21.3,99,80,61,30.28,29.90,14,3,21,0.00
2014-11-27,26.6,23.8,21.9,26.4,21.9,18.9,99,93,83,30.06,29.89,8,2,14,0.00
2014-11-28,25.5,20.3,14.7,23.5,17.1,10.5,97,87,75,30.19,30.03,7,1,11,0.00
2014-11-29,27.3,20.3,9.0,17.6,13.3,6.7,93,75,58,30.30,30.14,21,4,29,0.00
2014-11-30,43.7,36.3,25.5,40.3,30.6,17.5,90,80,70,30.14,29.96,22,12,34,0.01
2014-12-1,48.2,36.5,24.3,44.2,31.8,16.1,96,83,67,30.50,29.95,17,5,26,0.00
2014-12-2,28.4,21.5,11.1,24.2,11.8,4.6,98,66,48,30.73,30.37,14,3,21,0.00
2014-12-3,39.9,32.7,24.8,39.7,32.1,24.3,99,98,80,30.37,29.85,14,4,18,0.11
2014-12-4,30.9,23.0,9.0,25.9,10.8,-0.3,95,61,38,30.57,30.02,18,3,24,0.00
2014-12-5,30.7,17.9,4.3,25.5,10.4,-1.8,99,73,43,30.66,30.42,13,2,17,0.00
2014-12-6,33.4,30.3,25.9,33.2,30.0,24.4,99,99,91,30.42,30.19,7,0,9,0.00
2014-12-7,26.6,13.2,-2.0,24.2,5.8,-7.9,93,72,52,30.75,30.38,11,1,14,0.00
2014-12-8,20.3,8.2,-3.5,15.5,-0.1,-9.0,83,69,56,30.74,30.50,12,1,18,0.00
2014-12-9,37.4,27.0,14.9,36.2,25.1,8.8,99,92,76,30.51,29.84,14,2,25,0.18
2014-12-10,34.7,33.1,32.4,34.5,32.9,32.1,99,99,99,29.84,29.50,8,2,12,0.40
2014-12-11,35.8,31.4,27.3,35.5,31.2,27.1,99,99,99,29.79,29.49,0,0,0,0.02
2014-12-12,32.0,26.8,23.7,31.3,26.3,23.0,99,98,94,29.95,29.79,0,0,0,0.00
2014-12-13,28.0,25.3,23.7,26.6,24.5,22.8,99,96,91,29.94,29.86,0,0,0,0.00
2014-12-14,32.4,28.8,24.8,29.8,27.2,23.6,99,94,89,30.01,29.86,0,0,0,0.00
2014-12-15,27.3,24.9,23.2,27.1,23.7,21.8,99,95,91,30.13,30.00,4,0,8,0.00
2014-12-16,35.8,26.9,24.8,34.2,25.7,23.5,99,95,91,29.93,29.74,13,1,22,0.00
2014-12-17,38.7,34.3,32.7,38.4,34.0,31.9,99,99,94,29.84,29.64,8,0,11,0.30
2014-12-18,32.9,29.1,25.2,32.7,28.6,24.9,99,98,93,29.79,29.63,5,0,8,0.00
2014-12-19,25.2,21.5,15.1,24.9,19.7,12.7,99,92,85,30.08,29.77,0,0,0,0.00
2014-12-20,33.8,21.2,8.8,24.9,18.1,7.0,99,88,57,30.21,29.50,1,0,2,0.01
2014-12-21,25.2,23.0,13.5,23.5,21.6,11.9,99,94,86,29.99,29.52,2,0,3,0.01
2014-12-22,32.4,27.4,22.3,28.7,25.4,21.6,99,92,81,30.01,29.91,5,0,9,0.00
2014-12-23,35.6,29.5,23.5,35.4,28.9,22.1,99,98,92,30.02,29.70,8,0,13,0.20
2014-12-24,41.9,30.1,22.8,41.6,29.1,20.8,99,96,91,29.93,29.36,11,2,17,0.77
2014-12-25,52.7,33.5,22.8,52.1,30.2,20.8,99,88,64,30.07,29.20,22,3,38,0.01
2014-12-26,41.2,36.5,33.6,30.8,28.1,25.9,81,71,63,30.20,29.99,10,2,17,0.00
2014-12-27,41.5,38.2,34.9,35.7,31.8,29.0,82,78,72,30.25,29.95,19,3,27,0.00
2014-12-28,43.7,37.4,26.8,40.5,31.6,13.9,99,80,54,30.05,29.80,16,5,28,0.15
2014-12-29,28.2,21.8,12.9,20.2,8.1,-1.8,78,56,37,30.27,30.03,13,2,22,0.00
2014-12-30,16.9,9.8,4.8,4.3,-2.2,-6.3,79,59,38,30.37,30.26,8,1,14,0.00
2014-12-31,18.9,9.7,0.0,7.6,0.3,-4.7,84,66,47,30.29,29.99,17,3,25,0.00
2015-1-1,24.4,19.1,13.3,12.2,8.6,3.6,82,63,55,30.00,29.82,21,9,29,0.00
2015-1-2,24.4,17.8,8.4,22.2,10.4,-4.9,96,73,52,30.47,29.86,13,3,22,0.00